Time;durP1;ratioP1;P1;durP2;ratioP2;P2;SDS_P1;SDS_P2;PMS_P1;PMS_P2;Temp;Humidity;BMP_temperature;BMP_pressure;BME280_temperature;BME280_humidity;BME280_pressure;Samples;Min_cycle;Max_cycle;Signal;HPM_P1;HPM_P2
2023/01/22 00:01:07;;;;;;;2.75;2.38;;;17.60;35.00;;;;;;5065136;28;20040;-45
2023/01/22 00:03:38;;;;;;;3.33;1.75;;;17.60;35.10;;;;;;5065046;28;20139;-44
2023/01/22 00:06:07;;;;;;;2.33;1.77;;;17.60;35.10;;;;;;5065306;28;20094;-44
2023/01/22 00:08:34;;;;;;;3.13;2.88;;;17.60;35.10;;;;;;5064807;28;20049;-43
2023/01/22 00:11:01;;;;;;;2.55;1.50;;;17.60;35.10;;;;;;5064955;28;20885;-45
2023/01/22 00:13:33;;;;;;;2.55;2.28;;;17.60;35.10;;;;;;5064962;28;20113;-43
2023/01/22 00:16:04;;;;;;;1.80;1.65;;;17.60;35.10;;;;;;5065016;28;20422;-45
2023/01/22 00:18:34;;;;;;;2.28;2.08;;;17.50;35.10;;;;;;5064910;28;20072;-46
2023/01/22 00:21:02;;;;;;;3.00;1.83;;;17.50;35.20;;;;;;5065063;28;20049;-45
2023/01/22 00:23:29;;;;;;;3.42;2.85;;;17.50;35.20;;;;;;5065131;28;20102;-45
2023/01/22 00:26:03;;;;;;;2.28;2.08;;;17.50;35.20;;;;;;5065571;28;20151;-45
2023/01/22 00:28:30;;;;;;;4.05;2.13;;;17.50;35.20;;;;;;5062785;28;20139;-45
2023/01/22 00:30:58;;;;;;;2.88;2.35;;;17.40;35.20;;;;;;5043593;28;20145;-47
2023/01/22 00:33:25;;;;;;;1.95;1.75;;;17.40;35.20;;;;;;5045377;28;20068;-45
2023/01/22 00:35:53;;;;;;;2.13;1.70;;;17.50;35.30;;;;;;5043435;28;20107;-44
2023/01/22 00:38:23;;;;;;;4.18;2.28;;;17.40;35.30;;;;;;5043758;28;20135;-48
2023/01/22 00:40:50;;;;;;;3.13;1.48;;;17.40;35.30;;;;;;5045021;28;20044;-45
2023/01/22 00:43:20;;;;;;;3.88;1.70;;;17.40;35.40;;;;;;5044544;28;20049;-45
2023/01/22 00:45:47;;;;;;;2.05;1.10;;;17.40;35.40;;;;;;5043300;28;20056;-45
2023/01/22 00:48:15;;;;;;;1.80;1.70;;;17.40;35.40;;;;;;5043540;28;20147;-43
2023/01/22 00:50:42;;;;;;;3.03;1.63;;;17.40;35.40;;;;;;5044724;28;20467;-44
2023/01/22 00:53:16;;;;;;;2.72;1.98;;;17.30;35.40;;;;;;5043845;28;20044;-44
2023/01/22 00:55:50;;;;;;;2.17;1.80;;;17.30;35.40;;;;;;5062703;28;20049;-45
2023/01/22 00:58:20;;;;;;;3.58;2.33;;;17.40;35.50;;;;;;5064514;28;20060;-47
2023/01/22 01:00:48;;;;;;;2.28;1.85;;;17.30;35.50;;;;;;5055961;28;20110;-48
2023/01/22 01:03:30;;;;;;;2.33;2.03;;;17.30;35.50;;;;;;5043330;28;20128;-48
2023/01/22 01:06:00;;;;;;;2.10;1.90;;;17.30;35.50;;;;;;5063638;28;20566;-47
2023/01/22 01:08:32;;;;;;;2.30;2.08;;;17.30;35.50;;;;;;5063163;28;20091;-45
2023/01/22 01:11:01;;;;;;;2.25;1.27;;;17.30;35.50;;;;;;5062759;28;20127;-47
2023/01/22 01:13:31;;;;;;;3.70;1.77;;;17.30;35.50;;;;;;5060603;28;20052;-44
2023/01/22 01:16:00;;;;;;;1.90;1.73;;;17.30;35.60;;;;;;5046051;28;20040;-45
2023/01/22 01:18:35;;;;;;;2.88;2.10;;;17.30;35.60;;;;;;5047981;28;20096;-42
2023/01/22 01:21:03;;;;;;;2.10;1.75;;;17.30;35.60;;;;;;5046871;28;20049;-43
2023/01/22 01:23:34;;;;;;;2.78;1.48;;;17.20;35.50;;;;;;5048208;28;20510;-43
2023/01/22 01:26:05;;;;;;;4.60;1.75;;;17.20;35.50;;;;;;5052616;28;20045;-44
2023/01/22 01:28:36;;;;;;;4.65;2.00;;;17.20;35.50;;;;;;5081083;28;20052;-44
2023/01/22 01:31:04;;;;;;;2.60;1.85;;;17.20;35.50;;;;;;5047869;28;20049;-46
2023/01/22 01:33:34;;;;;;;2.70;1.83;;;17.20;35.50;;;;;;5048220;28;20044;-43
2023/01/22 01:36:03;;;;;;;3.88;2.28;;;17.20;35.50;;;;;;5047944;28;20111;-44
2023/01/22 01:38:34;;;;;;;4.05;2.97;;;17.20;35.50;;;;;;5047878;28;20073;-46
2023/01/22 01:41:03;;;;;;;1.75;0.90;;;17.20;35.50;;;;;;5047633;28;20072;-48
2023/01/22 01:43:31;;;;;;;1.50;1.40;;;17.20;35.60;;;;;;5047022;28;20154;-55
2023/01/22 01:46:02;;;;;;;3.20;2.20;;;17.20;35.60;;;;;;5048224;28;20049;-46
2023/01/22 01:48:33;;;;;;;2.15;1.40;;;17.20;35.50;;;;;;5046739;28;20064;-47
2023/01/22 01:51:08;;;;;;;3.58;1.40;;;17.20;35.60;;;;;;5047910;28;20047;-45
2023/01/22 01:53:39;;;;;;;2.35;1.90;;;17.20;35.60;;;;;;5054395;28;20729;-46
2023/01/22 01:56:11;;;;;;;1.73;1.60;;;17.20;35.60;;;;;;5067259;28;20059;-46
2023/01/22 01:58:41;;;;;;;2.67;1.92;;;17.20;35.60;;;;;;5065936;28;20044;-49
2023/01/22 02:01:13;;;;;;;1.55;1.25;;;17.10;35.50;;;;;;5067906;28;20132;-48
2023/01/22 02:03:43;;;;;;;1.30;1.23;;;17.20;35.60;;;;;;5067649;28;20502;-43
2023/01/22 02:06:11;;;;;;;2.05;1.63;;;17.20;35.60;;;;;;5067656;28;20033;-46
2023/01/22 02:08:40;;;;;;;2.10;1.90;;;17.10;35.50;;;;;;5065756;28;20373;-44
2023/01/22 02:11:10;;;;;;;2.30;1.95;;;17.10;35.50;;;;;;5067050;28;20052;-46
2023/01/22 02:13:40;;;;;;;1.88;1.67;;;17.10;35.50;;;;;;5067225;28;20056;-43
2023/01/22 02:16:09;;;;;;;1.88;1.35;;;17.10;35.50;;;;;;5067071;28;20537;-45
2023/01/22 02:18:36;;;;;;;2.72;2.05;;;17.10;35.50;;;;;;5065899;28;20062;-45
2023/01/22 02:21:41;;;;;;;2.08;1.55;;;17.10;35.60;;;;;;5066945;28;20044;-45
2023/01/22 02:24:15;;;;;;;1.90;1.80;;;17.10;35.50;;;;;;5058791;28;20457;-44
2023/01/22 02:26:44;;;;;;;2.65;1.90;;;17.10;35.60;;;;;;5067318;28;20078;-46
2023/01/22 02:29:15;;;;;;;2.88;1.77;;;17.10;35.60;;;;;;5057781;28;20072;-45
2023/01/22 02:31:43;;;;;;;1.75;1.45;;;17.10;35.60;;;;;;5045507;28;20553;-44
2023/01/22 02:34:11;;;;;;;2.42;2.20;;;17.00;35.50;;;;;;5045619;28;20053;-47
2023/01/22 02:36:40;;;;;;;1.52;1.30;;;17.10;35.60;;;;;;5045107;28;20071;-45
2023/01/22 02:39:08;;;;;;;1.48;1.25;;;17.10;35.60;;;;;;5046115;28;20044;-45
2023/01/22 02:41:39;;;;;;;2.92;1.83;;;17.10;35.60;;;;;;5049457;28;20049;-45
2023/01/22 02:44:11;;;;;;;2.80;1.90;;;17.10;35.60;;;;;;5068009;28;20123;-45
2023/01/22 02:46:39;;;;;;;2.08;1.52;;;17.00;35.50;;;;;;5065131;28;20098;-46
2023/01/22 02:49:10;;;;;;;1.90;1.70;;;17.00;35.50;;;;;;5065063;28;20040;-46
2023/01/22 02:51:37;;;;;;;3.80;2.42;;;17.00;35.50;;;;;;5064955;28;20132;-43
2023/01/22 02:54:04;;;;;;;3.95;2.50;;;17.00;35.50;;;;;;5059952;28;20119;-45
2023/01/22 02:56:37;;;;;;;1.85;1.65;;;17.00;35.50;;;;;;5044644;28;20107;-46
2023/01/22 02:59:06;;;;;;;2.95;1.58;;;17.00;35.50;;;;;;5058235;28;20064;-46
2023/01/22 03:01:35;;;;;;;3.00;2.08;;;17.00;36.10;;;;;;5065071;28;20118;-44
2023/01/22 03:04:09;;;;;;;2.47;1.92;;;17.00;35.50;;;;;;5065084;28;20044;-45
2023/01/22 03:06:39;;;;;;;4.90;1.98;;;17.00;35.50;;;;;;5079516;28;20060;-43
2023/01/22 03:09:07;;;;;;;3.72;1.60;;;17.00;35.50;;;;;;5045595;28;20091;-45
2023/01/22 03:11:38;;;;;;;2.45;1.98;;;17.00;35.50;;;;;;5045206;28;20514;-43
2023/01/22 03:22:32;;;;;;;4.30;2.53;;;17.00;35.50;;;;;;5044166;28;20037;-42
2023/01/22 03:25:00;;;;;;;3.10;2.17;;;16.90;35.50;;;;;;5046046;28;20387;-43
2023/01/22 03:27:34;;;;;;;2.22;1.25;;;17.00;35.50;;;;;;5060799;28;20048;-43
2023/01/22 03:30:06;;;;;;;4.25;2.25;;;17.00;35.50;;;;;;5052215;28;20083;-43
2023/01/22 03:32:35;;;;;;;4.50;2.08;;;17.00;35.50;;;;;;5084511;28;20048;-43
2023/01/22 03:35:03;;;;;;;4.05;2.83;;;17.00;35.50;;;;;;5085992;28;20586;-42
2023/01/22 03:37:44;;;;;;;2.97;1.85;;;17.00;35.50;;;;;;5084437;28;20112;-45
2023/01/22 03:40:11;;;;;;;2.30;2.10;;;17.00;35.50;;;;;;5084295;28;20067;-45
2023/01/22 03:42:41;;;;;;;2.33;1.63;;;17.00;35.50;;;;;;5067704;28;20125;-43
2023/01/22 03:45:11;;;;;;;1.38;1.27;;;17.00;35.50;;;;;;5086020;28;20119;-44
2023/01/22 03:47:38;;;;;;;2.47;1.77;;;17.00;35.50;;;;;;5086120;28;20058;-44
2023/01/22 03:50:19;;;;;;;2.78;1.98;;;16.90;35.40;;;;;;5083994;28;20036;-43
2023/01/22 03:52:46;;;;;;;3.55;3.05;;;17.00;35.50;;;;;;5084609;28;20047;-44
2023/01/22 03:55:14;;;;;;;3.03;1.70;;;17.00;35.40;;;;;;5066794;28;20053;-44
2023/01/22 03:57:41;;;;;;;2.22;1.85;;;17.00;35.40;;;;;;5064050;28;20049;-46
2023/01/22 04:00:13;;;;;;;1.95;1.70;;;17.00;35.40;;;;;;5080846;28;20055;-44
2023/01/22 04:02:43;;;;;;;2.22;1.75;;;17.00;35.40;;;;;;5081108;28;20109;-44
2023/01/22 04:05:20;;;;;;;3.10;1.67;;;17.00;35.40;;;;;;5063622;28;20051;-44
2023/01/22 04:07:50;;;;;;;3.00;1.85;;;17.00;35.40;;;;;;5064064;28;20336;-43
2023/01/22 04:10:19;;;;;;;3.30;2.35;;;17.00;35.30;;;;;;5063649;28;20040;-43
2023/01/22 04:12:46;;;;;;;1.58;1.48;;;17.00;35.30;;;;;;5063959;28;20732;-44
2023/01/22 04:15:17;;;;;;;1.98;1.33;;;17.00;35.30;;;;;;5063718;28;20044;-45
2023/01/22 04:17:45;;;;;;;2.65;2.10;;;17.00;35.90;;;;;;5063555;28;20052;-43
2023/01/22 04:20:25;;;;;;;1.08;1.00;;;17.00;35.30;;;;;;5063021;28;20091;-44
2023/01/22 04:22:59;;;;;;;3.05;1.70;;;17.00;35.30;;;;;;5064016;28;20052;-44
2023/01/22 04:25:27;;;;;;;1.40;1.30;;;17.00;35.20;;;;;;5063655;28;20044;-44
2023/01/22 04:27:55;;;;;;;1.40;1.30;;;17.00;35.20;;;;;;5063737;28;20047;-45
2023/01/22 04:30:24;;;;;;;2.63;2.25;;;17.00;35.20;;;;;;5047220;28;20045;-46
2023/01/22 04:32:58;;;;;;;2.92;1.73;;;17.00;35.20;;;;;;5043634;28;20506;-48
2023/01/22 04:36:00;;;;;;;1.77;1.52;;;17.00;35.20;;;;;;5043425;28;20092;-47
2023/01/22 04:38:28;;;;;;;2.45;1.27;;;17.00;35.20;;;;;;5043406;28;20056;-49
2023/01/22 04:40:55;;;;;;;1.77;1.67;;;17.00;35.20;;;;;;5043334;28;20049;-48
2023/01/22 04:43:23;;;;;;;3.20;1.50;;;17.00;35.20;;;;;;5043757;28;20075;-44
2023/01/22 04:45:52;;;;;;;1.45;1.35;;;17.00;35.10;;;;;;5027030;28;20116;-44
2023/01/22 04:48:21;;;;;;;2.10;1.52;;;17.00;35.10;;;;;;5043574;28;20106;-46
2023/01/22 04:50:50;;;;;;;2.60;2.40;;;17.00;35.10;;;;;;5046550;28;20044;-45
2023/01/22 04:53:17;;;;;;;3.40;1.42;;;17.10;35.10;;;;;;5048160;28;20128;-45
2023/01/22 04:55:47;;;;;;;2.80;1.88;;;17.00;35.00;;;;;;5052658;28;20138;-44
2023/01/22 04:58:16;;;;;;;3.05;1.80;;;17.10;35.10;;;;;;5054092;28;20071;-46
2023/01/22 05:00:45;;;;;;;2.22;1.92;;;17.10;35.10;;;;;;5066889;28;20127;-47
2023/01/22 05:03:14;;;;;;;3.40;2.70;;;17.10;35.10;;;;;;5066798;28;20521;-46
2023/01/22 05:05:44;;;;;;;2.70;1.65;;;17.10;35.00;;;;;;5067100;28;20052;-44
2023/01/22 05:08:14;;;;;;;3.22;2.45;;;17.10;35.00;;;;;;5066860;28;20422;-46
2023/01/22 05:10:41;;;;;;;2.55;2.28;;;17.10;35.00;;;;;;5066887;28;20040;-44
2023/01/22 05:13:12;;;;;;;1.30;1.02;;;17.20;35.00;;;;;;5067132;28;20070;-46
2023/01/22 05:15:41;;;;;;;2.08;1.52;;;17.20;35.00;;;;;;5063988;28;20777;-43
2023/01/22 05:18:13;;;;;;;2.28;1.55;;;17.10;34.90;;;;;;5066771;28;20459;-45
2023/01/22 05:20:50;;;;;;;1.98;1.63;;;17.20;35.00;;;;;;5066810;28;20514;-44
2023/01/22 05:23:21;;;;;;;1.35;1.25;;;17.10;34.90;;;;;;5068299;28;20071;-45
2023/01/22 05:25:48;;;;;;;2.70;1.48;;;17.10;35.00;;;;;;5068401;28;20063;-44
2023/01/22 05:28:18;;;;;;;1.60;1.20;;;17.10;35.00;;;;;;5066731;28;20047;-44
2023/01/22 05:31:15;;;;;;;1.75;1.50;;;17.10;34.90;;;;;;5046450;28;20158;-47
2023/01/22 05:33:52;;;;;;;4.05;1.98;;;17.20;35.00;;;;;;5047026;28;20509;-46
2023/01/22 05:36:23;;;;;;;2.47;1.20;;;17.20;35.00;;;;;;5049590;28;20045;-51
2023/01/22 05:38:53;;;;;;;2.45;1.40;;;17.20;35.00;;;;;;5047024;28;20138;-44
2023/01/22 05:41:21;;;;;;;1.55;1.45;;;17.20;35.00;;;;;;5046581;28;20611;-44
2023/01/22 05:43:52;;;;;;;2.47;1.27;;;17.20;34.90;;;;;;5046525;28;20065;-45
2023/01/22 05:46:24;;;;;;;1.42;1.25;;;17.20;35.00;;;;;;5045974;28;20068;-45
2023/01/22 05:49:11;;;;;;;1.87;1.10;;;17.20;34.90;;;;;;5047934;28;20055;-44
2023/01/22 05:51:39;;;;;;;1.38;1.35;;;17.20;34.90;;;;;;5047641;28;20197;-45
2023/01/22 05:54:08;;;;;;;1.73;1.08;;;17.20;35.00;;;;;;5054465;28;20036;-47
2023/01/22 05:56:38;;;;;;;2.40;1.02;;;17.20;34.90;;;;;;5065642;28;20057;-44
2023/01/22 05:59:05;;;;;;;2.45;1.88;;;17.20;34.90;;;;;;5049540;28;20052;-42
2023/01/22 06:01:35;;;;;;;3.65;1.63;;;17.20;34.90;;;;;;5065311;28;20056;-47
2023/01/22 06:04:03;;;;;;;1.85;1.38;;;17.30;35.00;;;;;;5066525;28;20044;-46
2023/01/22 06:06:33;;;;;;;1.92;1.23;;;17.20;34.90;;;;;;5066063;28;20125;-44
2023/01/22 06:09:00;;;;;;;1.48;1.38;;;17.30;34.90;;;;;;5066488;28;20094;-44
2023/01/22 06:11:34;;;;;;;1.65;0.73;;;17.30;35.00;;;;;;5066510;28;20051;-43
2023/01/22 06:14:01;;;;;;;2.88;1.13;;;17.30;35.00;;;;;;5066393;28;20055;-45
2023/01/22 06:16:29;;;;;;;1.55;1.42;;;17.30;34.90;;;;;;5065774;28;20044;-47
2023/01/22 06:19:09;;;;;;;2.92;1.20;;;17.30;34.90;;;;;;5049968;28;20123;-46
2023/01/22 06:21:47;;;;;;;2.17;1.10;;;17.30;34.90;;;;;;5066117;28;20276;-45
2023/01/22 06:24:18;;;;;;;1.15;0.88;;;17.30;34.90;;;;;;5066554;28;20051;-43
2023/01/22 06:26:45;;;;;;;1.30;1.20;;;17.30;34.90;;;;;;5066070;28;20045;-47
2023/01/22 06:29:14;;;;;;;1.35;1.13;;;17.30;34.80;;;;;;5057465;28;20120;-45
2023/01/22 06:31:42;;;;;;;2.63;1.45;;;17.30;34.80;;;;;;5046054;28;20041;-44
2023/01/22 06:34:12;;;;;;;1.60;1.20;;;17.30;34.80;;;;;;5045897;28;20106;-46
2023/01/22 06:36:40;;;;;;;1.40;1.30;;;17.30;34.90;;;;;;5045661;28;20048;-47
2023/01/22 06:39:11;;;;;;;1.40;1.30;;;17.30;34.80;;;;;;5046802;28;20490;-47
2023/01/22 06:41:44;;;;;;;2.78;1.90;;;17.40;34.90;;;;;;5045284;28;20049;-43
2023/01/22 06:44:17;;;;;;;2.90;1.77;;;17.30;34.80;;;;;;5061596;28;20050;-49
2023/01/22 06:46:45;;;;;;;1.00;0.85;;;17.30;34.80;;;;;;5085995;28;20059;-46
2023/01/22 06:49:24;;;;;;;2.20;1.73;;;17.40;34.90;;;;;;5085996;28;20092;-45
2023/01/22 06:51:51;;;;;;;1.38;1.27;;;17.40;34.90;;;;;;5079717;28;20420;-45
2023/01/22 06:54:20;;;;;;;2.05;1.75;;;17.40;34.90;;;;;;5064550;28;20749;-45
2023/01/22 06:56:47;;;;;;;1.10;1.00;;;17.40;34.90;;;;;;5064926;28;20033;-45
2023/01/22 06:59:15;;;;;;;3.85;1.45;;;17.40;34.90;;;;;;5065111;28;20544;-45
2023/01/22 07:01:42;;;;;;;1.45;1.15;;;17.40;34.90;;;;;;5066601;28;20062;-44
2023/01/22 07:04:10;;;;;;;2.05;1.35;;;17.40;34.90;;;;;;5065455;28;20149;-43
2023/01/22 07:06:39;;;;;;;2.03;1.55;;;17.40;35.50;;;;;;5065613;28;20048;-45
2023/01/22 07:09:06;;;;;;;1.90;1.77;;;17.40;34.80;;;;;;5066335;28;20135;-48
2023/01/22 07:11:36;;;;;;;4.60;2.00;;;17.40;34.80;;;;;;5066364;28;20052;-47
2023/01/22 07:14:29;;;;;;;2.42;1.30;;;17.40;34.90;;;;;;5054597;28;20559;-44
2023/01/22 07:17:01;;;;;;;2.25;2.00;;;17.40;35.50;;;;;;5046298;28;20053;-44
2023/01/22 07:19:30;;;;;;;1.98;1.77;;;17.40;34.90;;;;;;5046014;28;20047;-43
2023/01/22 07:21:58;;;;;;;3.55;1.33;;;17.40;34.80;;;;;;5046006;28;20130;-45
2023/01/22 07:24:25;;;;;;;1.63;1.10;;;17.50;34.90;;;;;;5046248;28;20045;-46
2023/01/22 07:26:54;;;;;;;1.35;1.25;;;17.40;34.90;;;;;;5046034;28;20045;-47
2023/01/22 07:29:21;;;;;;;2.00;1.85;;;17.50;35.50;;;;;;5052616;28;20041;-46
2023/01/22 07:31:50;;;;;;;1.85;1.45;;;17.50;34.90;;;;;;5047772;28;20052;-45
2023/01/22 07:34:17;;;;;;;1.48;1.20;;;17.50;34.90;;;;;;5085990;28;20416;-47
2023/01/22 07:36:47;;;;;;;2.22;1.67;;;17.50;34.90;;;;;;5061907;28;20080;-46
2023/01/22 07:39:14;;;;;;;1.70;1.60;;;17.50;34.90;;;;;;5045715;28;20045;-44
2023/01/22 07:41:42;;;;;;;3.65;1.55;;;17.50;34.90;;;;;;5045434;28;20115;-43
2023/01/22 07:44:14;;;;;;;1.15;0.98;;;17.50;34.80;;;;;;5046129;28;20098;-47
2023/01/22 07:46:44;;;;;;;2.00;1.67;;;17.50;34.80;;;;;;5045913;28;20069;-45
2023/01/22 07:49:12;;;;;;;2.03;1.50;;;17.50;34.80;;;;;;5045694;28;20069;-45
2023/01/22 07:51:39;;;;;;;1.50;1.05;;;17.50;34.80;;;;;;5043869;28;20079;-43
2023/01/22 07:54:06;;;;;;;2.45;1.25;;;17.50;34.80;;;;;;5053242;28;20044;-45
2023/01/22 07:56:33;;;;;;;1.55;1.35;;;17.60;34.90;;;;;;5064756;28;20053;-45
2023/01/22 07:59:04;;;;;;;3.40;1.10;;;17.50;34.80;;;;;;5065179;28;20048;-44
2023/01/22 08:01:33;;;;;;;2.33;1.33;;;17.50;34.80;;;;;;5064999;28;20052;-45
2023/01/22 08:04:00;;;;;;;2.88;1.58;;;17.60;34.80;;;;;;5064894;28;20572;-45
2023/01/22 08:06:28;;;;;;;2.92;1.88;;;17.60;34.80;;;;;;5065073;28;20056;-43
2023/01/22 08:08:55;;;;;;;1.75;1.60;;;17.60;35.40;;;;;;5065369;28;20127;-44
2023/01/22 08:11:22;;;;;;;2.28;1.40;;;17.60;34.80;;;;;;5064497;28;20793;-45
2023/01/22 08:13:49;;;;;;;1.35;1.25;;;17.60;34.80;;;;;;5064857;28;20802;-43
2023/01/22 08:16:17;;;;;;;1.75;1.65;;;17.60;34.80;;;;;;5063541;28;20067;-45
2023/01/22 08:18:47;;;;;;;1.65;1.55;;;17.60;34.80;;;;;;5064898;28;20276;-47
2023/01/22 08:21:16;;;;;;;1.40;1.15;;;17.60;34.80;;;;;;5071035;28;20039;-45
2023/01/22 08:23:43;;;;;;;2.47;1.25;;;17.60;34.80;;;;;;5085118;28;20593;-44
2023/01/22 08:26:10;;;;;;;2.67;1.50;;;17.60;34.70;;;;;;5084350;28;20046;-45
2023/01/22 08:28:37;;;;;;;3.72;1.38;;;17.60;34.70;;;;;;5072363;28;20045;-45
2023/01/22 08:31:05;;;;;;;1.67;1.42;;;17.60;34.70;;;;;;5045031;28;20044;-44
2023/01/22 08:33:33;;;;;;;1.20;0.73;;;17.60;34.70;;;;;;5044741;28;20051;-44
2023/01/22 08:36:02;;;;;;;3.15;0.95;;;17.60;34.70;;;;;;5044373;28;20132;-44
2023/01/22 08:38:29;;;;;;;1.60;1.33;;;17.60;34.60;;;;;;5044639;28;20133;-44
2023/01/22 08:40:56;;;;;;;0.77;0.70;;;17.60;34.60;;;;;;5044155;28;20045;-43
2023/01/22 08:43:24;;;;;;;3.35;1.55;;;17.60;34.60;;;;;;5044308;28;20855;-45
2023/01/22 08:45:53;;;;;;;1.23;1.13;;;17.70;34.70;;;;;;5044213;28;20051;-43
2023/01/22 08:48:20;;;;;;;1.40;1.10;;;17.70;34.60;;;;;;5044758;28;20041;-45
2023/01/22 08:50:47;;;;;;;3.03;1.45;;;17.70;34.60;;;;;;5044474;28;20071;-43
2023/01/22 08:53:18;;;;;;;0.70;0.70;;;17.70;34.60;;;;;;5045426;28;20041;-46
2023/01/22 08:55:49;;;;;;;2.58;0.80;;;17.70;34.60;;;;;;5063267;28;20544;-45
2023/01/22 08:58:20;;;;;;;2.25;1.30;;;17.70;34.60;;;;;;5064414;28;20103;-44
2023/01/22 09:00:51;;;;;;;2.20;1.38;;;17.70;34.50;;;;;;5064381;28;20531;-46
2023/01/22 09:03:18;;;;;;;1.10;0.47;;;17.70;34.50;;;;;;5053098;28;20128;-45
2023/01/22 09:05:45;;;;;;;1.15;0.80;;;17.70;34.50;;;;;;5046553;28;20088;-43
2023/01/22 09:08:12;;;;;;;2.40;0.90;;;17.70;34.50;;;;;;5044264;28;20056;-43
2023/01/22 09:10:42;;;;;;;1.13;0.60;;;17.70;34.50;;;;;;5059640;28;20056;-46
2023/01/22 09:13:09;;;;;;;1.42;0.77;;;17.70;34.50;;;;;;5064425;28;20052;-45
2023/01/22 09:15:36;;;;;;;1.50;1.23;;;17.70;34.50;;;;;;5063068;28;20520;-44
2023/01/22 09:18:03;;;;;;;0.82;0.77;;;17.70;34.50;;;;;;5062714;28;20100;-45
2023/01/22 09:20:30;;;;;;;1.33;0.77;;;17.70;34.50;;;;;;5064235;28;20415;-44
2023/01/22 09:22:57;;;;;;;1.65;1.17;;;17.70;34.50;;;;;;5064138;28;20057;-46
2023/01/22 09:25:25;;;;;;;0.68;0.45;;;17.70;34.40;;;;;;5063706;28;20048;-44
2023/01/22 09:28:00;;;;;;;0.65;0.60;;;17.70;34.40;;;;;;5061170;28;20041;-43
2023/01/22 09:30:29;;;;;;;2.33;0.60;;;17.70;34.40;;;;;;5045739;28;20145;-43
2023/01/22 09:32:57;;;;;;;0.93;0.65;;;17.70;34.40;;;;;;5043771;28;20045;-47
2023/01/22 09:35:27;;;;;;;0.70;0.70;;;17.70;34.40;;;;;;5043788;28;20048;-47
2023/01/22 09:37:54;;;;;;;1.33;0.82;;;17.70;34.40;;;;;;5046730;28;20452;-48
2023/01/22 09:40:25;;;;;;;0.93;0.52;;;17.70;34.40;;;;;;5047693;28;20080;-45
2023/01/22 09:42:58;;;;;;;1.40;1.30;;;17.70;34.40;;;;;;5047805;28;20057;-49
2023/01/22 09:45:27;;;;;;;2.08;1.00;;;17.70;34.40;;;;;;5047539;28;20133;-45
2023/01/22 09:47:59;;;;;;;2.05;0.85;;;17.70;34.30;;;;;;5047804;28;20041;-45
2023/01/22 09:50:32;;;;;;;0.82;0.47;;;17.80;34.50;;;;;;5047758;28;20122;-48
2023/01/22 09:53:06;;;;;;;1.83;0.77;;;17.70;34.30;;;;;;5047052;28;20087;-46
2023/01/22 09:55:38;;;;;;;3.70;1.35;;;17.80;34.30;;;;;;5066660;28;20501;-46
2023/01/22 09:58:13;;;;;;;1.92;0.60;;;17.80;34.30;;;;;;5068720;28;20079;-50
2023/01/22 10:00:46;;;;;;;0.88;0.85;;;17.70;34.20;;;;;;5087670;28;20109;-42
2023/01/22 10:03:21;;;;;;;3.60;0.98;;;17.80;34.30;;;;;;5087518;28;20381;-49
2023/01/22 10:05:54;;;;;;;2.88;1.13;;;17.70;34.20;;;;;;5087741;28;20071;-46
2023/01/22 10:08:25;;;;;;;1.10;0.68;;;17.80;34.20;;;;;;5087332;28;20131;-44
2023/01/22 10:10:53;;;;;;;0.65;0.55;;;17.80;34.20;;;;;;5087422;28;20132;-47
2023/01/22 10:13:22;;;;;;;0.88;0.52;;;17.80;34.20;;;;;;5087359;28;20079;-47
2023/01/22 10:15:55;;;;;;;1.45;0.35;;;17.80;34.20;;;;;;5069271;28;20131;-44
2023/01/22 10:18:34;;;;;;;1.58;0.65;;;17.80;34.20;;;;;;5087503;28;20127;-44
2023/01/22 10:21:11;;;;;;;1.60;1.42;;;17.80;34.20;;;;;;5086556;28;20057;-44
2023/01/22 10:23:38;;;;;;;1.95;0.65;;;17.80;34.20;;;;;;5086973;28;20306;-47
2023/01/22 10:26:14;;;;;;;1.75;0.50;;;17.80;34.20;;;;;;5086550;28;20046;-45
2023/01/22 10:28:43;;;;;;;;;;;17.80;34.20;;;;;;5073306;28;20593;-44
2023/01/22 10:31:26;;;;;;;1.15;0.52;;;17.80;34.20;;;;;;5046325;28;20388;-44
2023/01/22 10:33:58;;;;;;;1.55;0.57;;;17.70;34.20;;;;;;5061671;28;20060;-44
2023/01/22 10:36:25;;;;;;;1.90;0.57;;;17.70;34.20;;;;;;5046132;28;20052;-43
2023/01/22 10:39:10;;;;;;;0.55;0.55;;;17.70;34.20;;;;;;5046448;28;20033;-44
2023/01/22 10:41:37;;;;;;;1.95;0.57;;;17.80;34.20;;;;;;5045999;28;20140;-44
2023/01/22 10:44:17;;;;;;;0.47;0.43;;;17.70;34.10;;;;;;5046392;28;20037;-44
2023/01/22 10:46:48;;;;;;;1.02;0.50;;;17.80;34.20;;;;;;5049657;28;20058;-44
2023/01/22 10:49:20;;;;;;;1.83;0.90;;;17.80;34.10;;;;;;5064374;28;20044;-45
2023/01/22 10:51:54;;;;;;;0.85;0.25;;;17.80;34.20;;;;;;5065837;28;20082;-44
2023/01/22 10:54:26;;;;;;;1.10;0.30;;;17.80;34.10;;;;;;5065838;28;20076;-44
2023/01/22 10:57:03;;;;;;;0.60;0.28;;;17.80;34.10;;;;;;5064641;28;20044;-48
2023/01/22 10:59:31;;;;;;;1.42;0.70;;;17.80;34.10;;;;;;5062962;28;20041;-45
2023/01/22 11:02:01;;;;;;;0.90;0.50;;;17.80;34.10;;;;;;5047999;28;20049;-47
2023/01/22 11:04:30;;;;;;;1.98;0.40;;;17.80;34.10;;;;;;5046004;28;20053;-45
2023/01/22 11:07:07;;;;;;;0.93;0.40;;;17.70;34.00;;;;;;5045426;28;20089;-45
2023/01/22 11:09:40;;;;;;;1.88;1.00;;;17.70;34.00;;;;;;5045697;28;20878;-47
2023/01/22 11:12:15;;;;;;;0.90;0.30;;;17.70;34.00;;;;;;5046006;28;20044;-46
2023/01/22 11:14:47;;;;;;;1.73;0.52;;;17.70;34.00;;;;;;5027825;28;20048;-45
2023/01/22 11:17:22;;;;;;;0.70;0.32;;;17.70;34.00;;;;;;5045728;28;20056;-44
2023/01/22 11:19:55;;;;;;;1.77;0.55;;;17.70;34.00;;;;;;5045149;28;20147;-46
2023/01/22 11:22:28;;;;;;;0.90;0.68;;;17.70;34.00;;;;;;5045609;28;20053;-45
2023/01/22 11:24:56;;;;;;;1.58;0.68;;;17.70;33.90;;;;;;5045609;28;20123;-46
2023/01/22 11:27:44;;;;;;;0.70;0.55;;;17.70;33.90;;;;;;5045427;28;20043;-44
2023/01/22 11:30:45;;;;;;;1.67;0.52;;;17.70;33.80;;;;;;5059553;28;20083;-45
2023/01/22 11:33:28;;;;;;;0.98;0.30;;;17.70;33.80;;;;;;5065178;28;20044;-52
2023/01/22 11:36:01;;;;;;;1.15;0.30;;;17.70;33.90;;;;;;5056089;28;20040;-46
2023/01/22 11:38:40;;;;;;;0.63;0.63;;;17.70;33.90;;;;;;5085147;28;20536;-46
2023/01/22 11:41:22;;;;;;;0.90;0.73;;;17.70;33.90;;;;;;5083950;28;20064;-45
2023/01/22 11:44:06;;;;;;;2.20;0.43;;;17.70;34.00;;;;;;5085422;28;20048;-46
2023/01/22 11:46:48;;;;;;;0.82;0.57;;;17.70;33.90;;;;;;5085173;28;20063;-45
2023/01/22 11:49:26;;;;;;;0.52;0.30;;;17.70;34.00;;;;;;5084861;28;20123;-47
2023/01/22 11:52:06;;;;;;;0.85;0.20;;;17.70;34.00;;;;;;5085259;28;20098;-46
2023/01/22 11:54:47;;;;;;;0.65;0.45;;;17.70;34.00;;;;;;5073467;28;20040;-47
2023/01/22 11:57:21;;;;;;;0.57;0.57;;;17.70;34.00;;;;;;5064738;28;20068;-45
2023/01/22 12:00:03;;;;;;;0.60;0.47;;;17.70;34.00;;;;;;5064363;28;20141;-45
2023/01/22 12:02:55;;;;;;;0.88;0.30;;;17.70;34.00;;;;;;5064838;28;20048;-47
2023/01/22 12:05:37;;;;;;;0.95;0.30;;;17.70;34.00;;;;;;5063439;28;20102;-46
2023/01/22 12:08:21;;;;;;;1.17;0.40;;;17.70;34.00;;;;;;5065136;28;20048;-44
2023/01/22 12:11:15;;;;;;;2.15;0.80;;;17.60;34.00;;;;;;5063097;28;20126;-43
2023/01/22 12:14:00;;;;;;;0.88;0.30;;;17.70;33.90;;;;;;5002334;28;20519;-45
2023/01/22 12:16:35;;;;;;;0.20;0.10;;;17.70;34.00;;;;;;5002542;28;20050;-45
2023/01/22 12:19:23;;;;;;;0.55;0.55;;;17.70;34.00;;;;;;5001919;28;20053;-46
2023/01/22 12:21:59;;;;;;;1.77;0.20;;;17.70;33.90;;;;;;5002322;28;20046;-44
2023/01/22 12:24:33;;;;;;;0.70;0.45;;;17.70;33.90;;;;;;4985536;28;20053;-44
2023/01/22 12:27:06;;;;;;;0.85;0.40;;;17.70;34.00;;;;;;5002462;28;20132;-46
2023/01/22 12:29:40;;;;;;;2.20;1.02;;;17.60;34.50;;;;;;4991600;28;20616;-44
2023/01/22 12:32:09;;;;;;;1.20;0.43;;;17.70;33.90;;;;;;4965933;28;20061;-45
2023/01/22 12:34:46;;;;;;;1.40;0.20;;;17.70;34.00;;;;;;4982560;28;20130;-44
2023/01/22 12:37:18;;;;;;;0.55;0.40;;;17.70;33.90;;;;;;4982211;28;20054;-44
2023/01/22 12:39:57;;;;;;;0.70;0.60;;;17.70;33.90;;;;;;4982031;28;20046;-45
2023/01/22 12:42:32;;;;;;;0.88;0.47;;;17.70;33.90;;;;;;4965966;28;20105;-49
2023/01/22 12:45:17;;;;;;;0.60;0.40;;;17.70;33.90;;;;;;4995723;28;20497;-45
2023/01/22 12:47:51;;;;;;;2.83;0.55;;;17.60;33.90;;;;;;5001583;28;20077;-44
2023/01/22 12:50:24;;;;;;;0.30;0.30;;;17.60;33.90;;;;;;5025409;28;20052;-45
2023/01/22 12:53:02;;;;;;;1.73;0.52;;;17.60;33.90;;;;;;5063939;28;20109;-47
2023/01/22 12:55:33;;;;;;;0.52;0.20;;;17.70;33.90;;;;;;5063713;28;20148;-46
2023/01/22 12:58:04;;;;;;;0.30;0.30;;;17.60;34.50;;;;;;5064115;28;20047;-44
2023/01/22 13:00:34;;;;;;;0.75;0.38;;;17.60;33.90;;;;;;5061050;28;20048;-46
2023/01/22 13:03:20;;;;;;;0.30;0.30;;;17.60;33.90;;;;;;5043446;28;20497;-45
2023/01/22 13:05:48;;;;;;;0.77;0.30;;;17.60;33.90;;;;;;5043822;28;20051;-48
2023/01/22 13:08:26;;;;;;;1.45;0.20;;;17.60;33.90;;;;;;5045018;28;20045;-46
2023/01/22 13:10:58;;;;;;;0.43;0.30;;;17.60;33.90;;;;;;5053738;28;20117;-49
2023/01/22 13:13:31;;;;;;;0.65;0.20;;;17.60;33.90;;;;;;5067432;28;20430;-45
2023/01/22 13:16:02;;;;;;;0.68;0.32;;;17.60;33.90;;;;;;5067689;28;20064;-44
2023/01/22 13:18:34;;;;;;;0.52;0.20;;;17.60;33.90;;;;;;5067759;28;20445;-46